createdAt,value
2018-07-14T00:00:05.843Z,100740.83
2018-07-14T00:01:16.135Z,100737.27
2018-07-14T00:02:26.181Z,100739.45
2018-07-14T00:03:32.461Z,100738.94
2018-07-14T00:04:38.728Z,100734.58
2018-07-14T00:05:45.004Z,100738.20
2018-07-14T00:06:52.199Z,100740.86
2018-07-14T00:07:58.213Z,100740.27
2018-07-14T00:09:03.682Z,100747.08
2018-07-14T00:10:10.256Z,100746.05
2018-07-14T00:11:15.894Z,100747.55
2018-07-14T00:12:22.617Z,100756.66
2018-07-14T00:13:29.671Z,100752.47
2018-07-14T00:14:35.659Z,100753.80
2018-07-14T00:15:41.634Z,100755.66
2018-07-14T00:16:47.899Z,100756.19
2018-07-14T00:17:54.136Z,100756.88
2018-07-14T00:19:00.088Z,100762.39
2018-07-14T00:20:05.675Z,100760.17
2018-07-14T00:21:11.612Z,100754.74
2018-07-14T00:22:17.875Z,100757.65
2018-07-14T00:23:23.924Z,100760.55
2018-07-14T00:24:30.323Z,100759.80
2018-07-14T00:25:36.600Z,100760.62
2018-07-14T00:26:42.615Z,100762.73
2018-07-14T00:27:48.881Z,100758.80
2018-07-14T00:28:55.927Z,100756.11
2018-07-14T00:30:02.193Z,100758.25
2018-07-14T00:31:08.168Z,100756.54
2018-07-14T00:32:14.400Z,100751.54
2018-07-14T00:33:20.634Z,100755.95
2018-07-14T00:34:26.915Z,100757.44
2018-07-14T00:35:33.155Z,100760.34
2018-07-14T00:36:39.391Z,100762.93
2018-07-14T00:37:45.640Z,100763.33
2018-07-14T00:38:51.900Z,100763.28
2018-07-14T00:39:58.161Z,100763.56
2018-07-14T00:41:04.422Z,100758.45
2018-07-14T00:42:10.759Z,100764.30
2018-07-14T00:43:17.007Z,100762.14
2018-07-14T00:44:23.311Z,100762.56
2018-07-14T00:45:29.589Z,100757.85
2018-07-14T00:46:35.850Z,100764.48
2018-07-14T00:47:42.111Z,100764.14
2018-07-14T00:48:48.081Z,100767.28
2018-07-14T00:49:54.406Z,100760.03
2018-07-14T00:51:00.312Z,100764.25
2018-07-14T00:52:06.209Z,100766.75
2018-07-14T00:53:12.484Z,100767.03
2018-07-14T00:54:18.731Z,100763.44
2018-07-14T00:55:24.636Z,100757.23
2018-07-14T00:56:30.883Z,100756.11
2018-07-14T00:57:37.149Z,100758.00
2018-07-14T00:58:43.420Z,100758.25
2018-07-14T00:59:49.695Z,100759.05
2018-07-14T01:00:55.425Z,100756.56
2018-07-14T01:02:01.531Z,100765.27
2018-07-14T01:03:07.692Z,100768.44
2018-07-14T01:04:14.374Z,100761.16
2018-07-14T01:05:20.404Z,100758.20
2018-07-14T01:06:26.673Z,100765.56
2018-07-14T01:07:32.920Z,100765.69
2018-07-14T01:08:39.188Z,100766.75
2018-07-14T01:09:45.454Z,100764.74
2018-07-14T01:10:51.736Z,100760.27
2018-07-14T01:11:58.020Z,100763.69
2018-07-14T01:13:04.279Z,100759.63
2018-07-14T01:14:10.137Z,100763.67
2018-07-14T01:15:16.453Z,100769.84
2018-07-14T01:16:22.505Z,100767.38
2018-07-14T01:17:29.976Z,100762.34
2018-07-14T01:18:35.610Z,100769.45
2018-07-14T01:19:41.183Z,100762.34
2018-07-14T01:20:47.464Z,100766.50
2018-07-14T01:21:53.749Z,100763.78
2018-07-14T01:22:59.711Z,100761.52
2018-07-14T01:24:05.691Z,100757.89
2018-07-14T01:25:11.700Z,100760.56
2018-07-14T01:26:17.696Z,100761.13
2018-07-14T01:27:23.329Z,100760.05
2018-07-14T01:28:29.605Z,100763.06
2018-07-14T01:29:35.864Z,100763.48
2018-07-14T01:30:42.162Z,100762.52
2018-07-14T01:31:48.414Z,100765.09
2018-07-14T01:32:54.428Z,100759.37
2018-07-14T01:34:00.673Z,100763.23
2018-07-14T01:35:06.952Z,100761.12
2018-07-14T01:36:13.231Z,100761.22
2018-07-14T01:37:19.492Z,100763.46
2018-07-14T01:38:25.735Z,100764.48
2018-07-14T01:39:31.983Z,100769.85
2018-07-14T01:40:38.977Z,100767.77
2018-07-14T01:41:46.411Z,100761.87
2018-07-14T01:42:52.384Z,100756.93
2018-07-14T01:43:58.655Z,100762.12
2018-07-14T01:45:04.308Z,100759.40
2018-07-14T01:46:10.595Z,100765.03
2018-07-14T01:47:16.854Z,100763.58
2018-07-14T01:48:23.115Z,100770.45
2018-07-14T01:49:29.087Z,100767.92
2018-07-14T01:50:35.364Z,100771.17
2018-07-14T01:51:41.036Z,100766.97
2018-07-14T01:52:47.287Z,100766.69
2018-07-14T01:53:53.540Z,100766.56
2018-07-14T01:54:59.817Z,100765.55
2018-07-14T01:56:06.100Z,100764.70
2018-07-14T01:57:12.739Z,100772.71
2018-07-14T01:58:19.016Z,100777.70
2018-07-14T01:59:25.281Z,100778.25
2018-07-14T02:00:31.567Z,100780.25
2018-07-14T02:01:37.839Z,100776.90
2018-07-14T02:02:44.108Z,100777.91
2018-07-14T02:03:50.369Z,100769.56
2018-07-14T02:04:56.623Z,100775.20
2018-07-14T02:06:02.900Z,100771.69
2018-07-14T02:07:09.200Z,100775.41
2018-07-14T02:08:15.215Z,100779.37
2018-07-14T02:09:21.512Z,100780.66
2018-07-14T02:10:27.875Z,100778.79
2018-07-14T02:11:34.171Z,100780.59
2018-07-14T02:12:40.423Z,100777.64
2018-07-14T02:13:46.675Z,100776.86
2018-07-14T02:14:52.915Z,100779.39
2018-07-14T02:15:59.179Z,100778.92
2018-07-14T02:17:05.264Z,100782.78
2018-07-14T02:18:10.962Z,100779.86
2018-07-14T02:19:17.187Z,100779.78
2018-07-14T02:20:23.480Z,100778.03
2018-07-14T02:21:29.751Z,100781.30
2018-07-14T02:22:36.016Z,100778.45
2018-07-14T02:23:42.296Z,100780.05
2018-07-14T02:24:48.552Z,100777.36
2018-07-14T02:25:54.839Z,100777.05
2018-07-14T02:27:01.061Z,100779.66
2018-07-14T02:28:06.957Z,100783.30
2018-07-14T02:29:13.238Z,100778.89
2018-07-14T02:30:19.185Z,100780.84
2018-07-14T02:31:25.103Z,100779.11
2018-07-14T02:32:31.765Z,100785.12
2018-07-14T02:33:38.746Z,100779.16
2018-07-14T02:34:45.007Z,100781.12
2018-07-14T02:35:51.307Z,100784.78
2018-07-14T02:36:57.562Z,100793.81
2018-07-14T02:38:03.797Z,100797.39
2018-07-14T02:39:15.162Z,100789.75
2018-07-14T02:40:21.141Z,100791.39
2018-07-14T02:41:27.411Z,100790.14
2018-07-14T02:42:33.673Z,100792.05
2018-07-14T02:43:39.966Z,100790.27
2018-07-14T02:44:46.205Z,100788.70
2018-07-14T02:45:52.477Z,100792.45
2018-07-14T02:46:58.714Z,100789.81
2018-07-14T02:48:04.613Z,100790.48
2018-07-14T02:49:11.514Z,100790.42
2018-07-14T02:50:19.779Z,100787.50
2018-07-14T02:51:26.099Z,100791.56
2018-07-14T02:52:32.394Z,100787.52
2018-07-14T02:53:38.394Z,100788.25
2018-07-14T02:54:44.673Z,100794.38
2018-07-14T02:55:51.147Z,100792.56
2018-07-14T02:56:57.079Z,100797.81
2018-07-14T02:58:03.347Z,100792.58
2018-07-14T02:59:09.631Z,100800.98
2018-07-14T03:00:15.900Z,100800.90
2018-07-14T03:01:21.816Z,100798.29
2018-07-14T03:02:28.057Z,100800.58
2018-07-14T03:03:34.048Z,100804.73
2018-07-14T03:04:39.960Z,100798.91
2018-07-14T03:05:46.220Z,100803.22
2018-07-14T03:06:52.268Z,100803.71
2018-07-14T03:07:58.507Z,100806.23
2018-07-14T03:09:03.850Z,100813.11
2018-07-14T03:10:09.942Z,100806.02
2018-07-14T03:11:16.217Z,100804.42
2018-07-14T03:12:22.529Z,100811.04
2018-07-14T03:13:28.766Z,100805.46
2018-07-14T03:14:35.022Z,100806.06
2018-07-14T03:15:41.284Z,100809.36
2018-07-14T03:16:47.552Z,100805.58
2018-07-14T03:17:53.838Z,100808.35
2018-07-14T03:19:00.098Z,100813.09
2018-07-14T03:20:06.048Z,100807.81
2018-07-14T03:21:12.359Z,100809.20
2018-07-14T03:22:18.340Z,100808.46
2018-07-14T03:23:24.583Z,100804.62
2018-07-14T03:24:31.597Z,100807.06
2018-07-14T03:25:38.602Z,100803.88
2018-07-14T03:26:44.883Z,100810.28
2018-07-14T03:27:51.131Z,100808.95
2018-07-14T03:28:57.396Z,100809.42
2018-07-14T03:30:03.327Z,100816.15
2018-07-14T03:31:09.601Z,100820.02
2018-07-14T03:32:15.923Z,100816.11
2018-07-14T03:33:22.197Z,100816.03
2018-07-14T03:34:28.648Z,100819.28
2018-07-14T03:35:34.884Z,100818.14
2018-07-14T03:36:41.234Z,100818.84
2018-07-14T03:37:47.648Z,100815.59
2018-07-14T03:38:53.977Z,100820.48
2018-07-14T03:40:01.137Z,100818.62
2018-07-14T03:41:07.459Z,100820.88
2018-07-14T03:42:13.706Z,100814.80
2018-07-14T03:43:19.983Z,100811.06
2018-07-14T03:44:26.249Z,100817.88
2018-07-14T03:45:32.485Z,100818.58
2018-07-14T03:46:38.785Z,100824.08
2018-07-14T03:47:45.033Z,100819.36
2018-07-14T03:48:51.240Z,100824.48
2018-07-14T03:49:57.529Z,100820.17
2018-07-14T03:51:03.766Z,100821.58
2018-07-14T03:52:10.031Z,100821.42
2018-07-14T03:53:16.289Z,100826.17
2018-07-14T03:54:22.533Z,100822.77
2018-07-14T03:55:28.803Z,100817.47
2018-07-14T03:56:35.081Z,100827.06
2018-07-14T03:57:41.391Z,100817.49
2018-07-14T03:58:47.664Z,100819.81
2018-07-14T03:59:53.958Z,100823.33
2018-07-14T04:01:00.368Z,100819.62
2018-07-14T04:02:06.301Z,100815.75
2018-07-14T04:03:12.563Z,100822.33
2018-07-14T04:04:18.807Z,100820.01
2018-07-14T04:05:25.061Z,100813.59
2018-07-14T04:06:31.394Z,100813.77
2018-07-14T04:07:37.822Z,100822.55
2018-07-14T04:08:44.076Z,100821.09
2018-07-14T04:09:50.340Z,100822.82
2018-07-14T04:10:56.303Z,100824.88
2018-07-14T04:12:02.300Z,100819.64
2018-07-14T04:13:08.360Z,100823.69
2018-07-14T04:14:14.315Z,100825.97
2018-07-14T04:15:20.216Z,100828.20
2018-07-14T04:16:26.763Z,100828.30
2018-07-14T04:17:33.753Z,100828.97
2018-07-14T04:18:40.449Z,100830.02
2018-07-14T04:19:47.976Z,100829.44
2018-07-14T04:20:55.898Z,100833.77
2018-07-14T04:22:03.412Z,100823.87
2018-07-14T04:23:11.292Z,100828.48
2018-07-14T04:24:18.478Z,100827.99
2018-07-14T04:25:25.875Z,100833.58
2018-07-14T04:26:33.352Z,100834.80
2018-07-14T04:27:40.001Z,100828.67
2018-07-14T04:28:47.118Z,100831.48
2018-07-14T04:29:54.168Z,100829.48
2018-07-14T04:31:00.441Z,100830.59
2018-07-14T04:32:07.078Z,100827.95
2018-07-14T04:33:13.929Z,100826.31
2018-07-14T04:34:20.164Z,100830.02
2018-07-14T04:35:26.418Z,100821.95
2018-07-14T04:36:32.699Z,100818.27
2018-07-14T04:37:39.011Z,100828.30
2018-07-14T04:38:45.308Z,100827.41
2018-07-14T04:39:51.568Z,100821.56
2018-07-14T04:40:57.807Z,100828.06
2018-07-14T04:42:04.184Z,100826.63
2018-07-14T04:43:10.158Z,100822.54
2018-07-14T04:44:16.441Z,100827.77
2018-07-14T04:45:22.718Z,100825.08
2018-07-14T04:46:28.715Z,100823.56
2018-07-14T04:47:35.894Z,100819.59
2018-07-14T04:48:42.174Z,100825.33
2018-07-14T04:49:48.420Z,100820.69
2018-07-14T04:50:54.706Z,100821.34
2018-07-14T04:52:00.962Z,100828.98
2018-07-14T04:53:07.300Z,100830.09
2018-07-14T04:54:13.745Z,100828.28
2018-07-14T04:55:20.002Z,100827.27
2018-07-14T04:56:26.267Z,100820.56
2018-07-14T04:57:32.177Z,100824.09
2018-07-14T04:58:38.647Z,100829.02
2018-07-14T04:59:44.896Z,100825.27
2018-07-14T05:00:50.927Z,100823.80
2018-07-14T05:01:56.885Z,100825.77
2018-07-14T05:03:03.147Z,100822.32
2018-07-14T05:04:09.128Z,100821.98
2018-07-14T05:05:15.449Z,100822.91
2018-07-14T05:06:21.789Z,100834.59
2018-07-14T05:07:28.242Z,100825.30
2018-07-14T05:08:34.515Z,100828.62
2018-07-14T05:09:40.763Z,100832.20
2018-07-14T05:10:47.036Z,100830.73
2018-07-14T05:11:53.279Z,100830.48
2018-07-14T05:12:59.565Z,100829.98
2018-07-14T05:14:05.477Z,100837.06
2018-07-14T05:15:11.739Z,100839.91
2018-07-14T05:16:18.047Z,100831.60
2018-07-14T05:17:24.311Z,100841.48
2018-07-14T05:18:30.653Z,100838.06
2018-07-14T05:19:36.898Z,100843.16
2018-07-14T05:20:43.167Z,100843.44
2018-07-14T05:21:49.442Z,100849.84
2018-07-14T05:22:55.712Z,100848.33
2018-07-14T05:24:02.052Z,100845.67
2018-07-14T05:25:09.054Z,100843.82
2018-07-14T05:26:15.303Z,100845.75
2018-07-14T05:27:21.560Z,100842.24
2018-07-14T05:28:27.881Z,100847.38
2018-07-14T05:29:34.114Z,100842.51
2018-07-14T05:30:40.413Z,100843.23
2018-07-14T05:31:46.709Z,100842.48
2018-07-14T05:32:52.962Z,100842.34
2018-07-14T05:33:59.187Z,100846.17
2018-07-14T05:35:05.470Z,100845.11
2018-07-14T05:36:11.713Z,100842.59
2018-07-14T05:37:17.999Z,100845.09
2018-07-14T05:38:24.281Z,100847.13
2018-07-14T05:39:30.596Z,100845.16
2018-07-14T05:40:37.588Z,100848.39
2018-07-14T05:41:43.838Z,100846.77
2018-07-14T05:42:50.096Z,100854.26
2018-07-14T05:43:56.349Z,100851.65
2018-07-14T05:45:02.620Z,100851.00
2018-07-14T05:46:09.406Z,100849.63
2018-07-14T05:47:15.383Z,100852.17
2018-07-14T05:48:21.636Z,100852.85
2018-07-14T05:49:27.903Z,100851.91
2018-07-14T05:50:34.147Z,100856.52
2018-07-14T05:51:40.432Z,100846.62
2018-07-14T05:52:46.346Z,100854.36
2018-07-14T05:53:52.695Z,100850.94
2018-07-14T05:54:58.963Z,100856.27
2018-07-14T05:56:05.224Z,100858.91
2018-07-14T05:57:11.498Z,100856.69
2018-07-14T05:58:17.786Z,100860.07
2018-07-14T05:59:24.083Z,100866.45
2018-07-14T06:00:30.095Z,100864.82
2018-07-14T06:01:36.639Z,100864.31
2018-07-14T06:02:42.891Z,100861.85
2018-07-14T06:03:48.931Z,100866.58
2018-07-14T06:04:54.923Z,100864.05
2018-07-14T06:06:01.049Z,100860.48
2018-07-14T06:07:07.057Z,100858.70
2018-07-14T06:08:13.325Z,100860.34
2018-07-14T06:09:19.615Z,100866.98
2018-07-14T06:10:25.565Z,100861.61
2018-07-14T06:11:31.875Z,100865.09
2018-07-14T06:12:38.141Z,100864.61
2018-07-14T06:13:44.456Z,100862.47
2018-07-14T06:14:50.712Z,100868.71
2018-07-14T06:15:57.877Z,100865.05
2018-07-14T06:17:04.911Z,100870.28
2018-07-14T06:18:11.226Z,100872.70
2018-07-14T06:19:17.703Z,100866.94
2018-07-14T06:20:23.980Z,100867.66
2018-07-14T06:21:30.237Z,100866.84
2018-07-14T06:22:36.483Z,100868.73
2018-07-14T06:23:42.769Z,100869.92
2018-07-14T06:24:49.031Z,100873.36
2018-07-14T06:25:55.032Z,100862.92
2018-07-14T06:27:01.287Z,100869.20
2018-07-14T06:28:07.581Z,100869.07
2018-07-14T06:29:13.904Z,100866.14
2018-07-14T06:30:19.837Z,100871.22
2018-07-14T06:31:26.114Z,100869.77
2018-07-14T06:32:32.710Z,100870.33
2018-07-14T06:33:39.011Z,100871.03
2018-07-14T06:34:45.054Z,100877.19
2018-07-14T06:35:51.779Z,100877.50
2018-07-14T06:36:58.111Z,100874.61
2018-07-14T06:38:04.023Z,100875.66
2018-07-14T06:39:10.025Z,100876.38
2018-07-14T06:40:15.924Z,100878.52
2018-07-14T06:41:22.181Z,100875.48
2018-07-14T06:42:28.478Z,100886.07
2018-07-14T06:43:34.737Z,100880.49
2018-07-14T06:44:41.090Z,100881.13
2018-07-14T06:45:49.138Z,100881.28
2018-07-14T06:46:56.627Z,100881.68
2018-07-14T06:48:02.545Z,100888.09
2018-07-14T06:49:08.851Z,100878.13
2018-07-14T06:50:15.775Z,100880.70
2018-07-14T06:51:23.539Z,100880.92
2018-07-14T06:52:32.134Z,100883.51
2018-07-14T06:53:38.704Z,100879.79
2018-07-14T06:54:44.977Z,100880.64
2018-07-14T06:55:51.212Z,100882.94
2018-07-14T06:56:57.507Z,100883.14
2018-07-14T06:58:03.794Z,100883.23
2018-07-14T06:59:10.081Z,100877.23
2018-07-14T07:00:16.351Z,100875.28
2018-07-14T07:01:22.648Z,100878.71
2018-07-14T07:02:28.883Z,100879.36
2018-07-14T07:03:35.654Z,100878.70
2018-07-14T07:04:42.971Z,100874.30
2018-07-14T07:05:49.824Z,100879.80
2018-07-14T07:06:56.452Z,100887.25
2018-07-14T07:08:03.066Z,100882.92
2018-07-14T07:09:09.869Z,100877.84
2018-07-14T07:10:16.356Z,100875.47
2018-07-14T07:11:22.576Z,100877.24
2018-07-14T07:12:29.187Z,100879.77
2018-07-14T07:13:35.636Z,100878.09
2018-07-14T07:14:42.641Z,100877.11
2018-07-14T07:15:49.243Z,100882.59
2018-07-14T07:16:55.842Z,100885.31
2018-07-14T07:18:02.896Z,100881.77
2018-07-14T07:19:09.718Z,100873.19
2018-07-14T07:20:16.447Z,100875.84
2018-07-14T07:21:23.402Z,100875.78
2018-07-14T07:22:30.393Z,100878.72
2018-07-14T07:23:37.104Z,100881.27
2018-07-14T07:24:43.337Z,100876.34
2018-07-14T07:25:49.536Z,100883.02
2018-07-14T07:26:56.976Z,100884.39
2018-07-14T07:28:03.598Z,100881.87
2018-07-14T07:29:09.988Z,100884.59
2018-07-14T07:30:16.466Z,100877.02
2018-07-14T07:31:23.096Z,100875.06
2018-07-14T07:32:29.574Z,100876.22
2018-07-14T07:33:35.923Z,100874.54
2018-07-14T07:34:42.472Z,100878.06
2018-07-14T07:35:49.361Z,100880.63
2018-07-14T07:36:55.435Z,100867.37
2018-07-14T07:38:02.122Z,100865.41
2018-07-14T07:39:09.689Z,100874.92
2018-07-14T07:40:16.501Z,100866.78
2018-07-14T07:41:22.982Z,100864.41
2018-07-14T07:42:29.738Z,100869.72
2018-07-14T07:43:36.459Z,100864.28
2018-07-14T07:44:42.793Z,100865.47
2018-07-14T07:45:49.307Z,100867.55
2018-07-14T07:46:55.852Z,100864.83
2018-07-14T07:48:03.265Z,100871.05
2018-07-14T07:49:10.166Z,100877.52
2018-07-14T07:50:18.467Z,100866.42
2018-07-14T07:51:25.232Z,100872.17
2018-07-14T07:52:31.508Z,100873.33
2018-07-14T07:53:37.882Z,100874.86
2018-07-14T07:54:45.234Z,100869.50
2018-07-14T07:55:51.754Z,100868.98
2018-07-14T07:56:58.082Z,100872.95
2018-07-14T07:58:04.600Z,100870.86
2018-07-14T07:59:11.030Z,100871.84
2018-07-14T08:00:19.195Z,100868.45
2018-07-14T08:01:25.620Z,100872.73
2018-07-14T08:02:32.278Z,100866.38
2018-07-14T08:03:39.179Z,100875.00
2018-07-14T08:04:46.021Z,100865.08
2018-07-14T08:05:52.146Z,100857.82
2018-07-14T08:06:59.112Z,100862.95
2018-07-14T08:08:05.535Z,100861.84
2018-07-14T08:09:12.145Z,100863.55
2018-07-14T08:10:19.207Z,100870.55
2018-07-14T08:11:25.467Z,100862.90
2018-07-14T08:12:32.006Z,100866.91
2018-07-14T08:13:38.523Z,100871.31
2018-07-14T08:14:45.196Z,100864.80
2018-07-14T08:15:51.491Z,100864.67
2018-07-14T08:16:57.853Z,100869.38
2018-07-14T08:18:04.520Z,100866.30
2018-07-14T08:19:10.869Z,100860.23
2018-07-14T08:20:16.908Z,100863.45
2018-07-14T08:21:23.684Z,100863.02
2018-07-14T08:22:30.275Z,100863.28
2018-07-14T08:23:36.644Z,100865.39
2018-07-14T08:24:43.411Z,100857.77
2018-07-14T08:25:50.496Z,100862.53
2018-07-14T08:26:57.671Z,100863.94
2018-07-14T08:28:04.170Z,100868.29
2018-07-14T08:29:10.889Z,100862.91
2018-07-14T08:30:18.427Z,100857.59
2018-07-14T08:31:26.055Z,100862.32
2018-07-14T08:32:32.319Z,100860.70
2018-07-14T08:33:38.576Z,100860.52
2018-07-14T08:34:45.702Z,100866.27
2018-07-14T08:35:52.670Z,100865.66
2018-07-14T08:36:59.275Z,100858.19
2018-07-14T08:38:05.798Z,100853.71
2018-07-14T08:39:12.508Z,100852.17
2018-07-14T08:40:19.130Z,100854.92
2018-07-14T08:41:26.308Z,100852.62
2018-07-14T08:42:34.737Z,100854.20
2018-07-14T08:43:41.334Z,100858.89
2018-07-14T08:44:48.079Z,100859.16
2018-07-14T08:45:54.195Z,100855.96
2018-07-14T08:47:00.779Z,100859.42
2018-07-14T08:48:07.335Z,100859.17
2018-07-14T08:49:13.811Z,100850.52
2018-07-14T08:50:21.274Z,100851.88
2018-07-14T08:51:27.969Z,100860.11
2018-07-14T08:52:34.820Z,100857.33
2018-07-14T08:53:41.751Z,100856.48
2018-07-14T08:54:48.595Z,100855.91
2018-07-14T08:55:54.865Z,100857.37
2018-07-14T08:57:03.917Z,100854.25
2018-07-14T08:58:10.990Z,100850.16
2018-07-14T08:59:18.043Z,100850.91
2018-07-14T09:00:24.905Z,100852.30
2018-07-14T09:01:31.278Z,100848.94
2018-07-14T09:02:37.837Z,100850.92
2018-07-14T09:03:44.774Z,100851.20
2018-07-14T09:04:51.248Z,100848.96
2018-07-14T09:05:57.532Z,100846.83
2018-07-14T09:07:03.487Z,100850.47
2018-07-14T09:08:10.728Z,100853.39
2018-07-14T09:09:17.131Z,100847.75
2018-07-14T09:10:23.709Z,100856.22
2018-07-14T09:11:29.879Z,100850.43
2018-07-14T09:12:36.415Z,100854.23
2018-07-14T09:13:43.530Z,100852.77
2018-07-14T09:14:49.789Z,100847.34
2018-07-14T09:15:56.020Z,100854.42
2018-07-14T09:17:02.267Z,100854.02
2018-07-14T09:18:08.523Z,100852.77
2018-07-14T09:19:14.572Z,100851.97
2018-07-14T09:20:20.831Z,100854.50
2018-07-14T09:21:27.099Z,100849.67
2018-07-14T09:22:32.999Z,100847.71
2018-07-14T09:23:39.247Z,100856.01
2018-07-14T09:24:45.499Z,100857.17
2018-07-14T09:25:51.749Z,100856.92
2018-07-14T09:26:58.004Z,100853.67
2018-07-14T09:28:04.282Z,100853.08
2018-07-14T09:29:11.393Z,100845.83
2018-07-14T09:30:17.799Z,100853.31
2018-07-14T09:31:24.033Z,100845.30
2018-07-14T09:32:30.452Z,100848.80
2018-07-14T09:33:36.903Z,100851.71
2018-07-14T09:34:42.931Z,100854.10
2018-07-14T09:35:49.190Z,100846.06
2018-07-14T09:36:55.466Z,100840.69
2018-07-14T09:38:01.778Z,100842.25
2018-07-14T09:39:08.283Z,100840.50
2018-07-14T09:40:14.548Z,100839.31
2018-07-14T09:41:20.550Z,100844.36
2018-07-14T09:42:26.540Z,100844.21
2018-07-14T09:43:32.790Z,100835.91
2018-07-14T09:44:39.151Z,100837.13
2018-07-14T09:45:45.576Z,100834.36
2018-07-14T09:46:51.866Z,100826.79
2018-07-14T09:47:58.154Z,100823.84
2018-07-14T09:49:04.048Z,100827.83
2018-07-14T09:50:10.340Z,100824.25
2018-07-14T09:51:16.620Z,100832.34
2018-07-14T09:52:22.913Z,100827.80
2018-07-14T09:53:29.237Z,100827.16
2018-07-14T09:54:35.542Z,100834.31
2018-07-14T09:55:41.881Z,100824.42
2018-07-14T09:56:47.839Z,100821.82
2018-07-14T09:57:54.087Z,100825.22
2018-07-14T09:59:00.374Z,100826.48
2018-07-14T10:00:06.433Z,100821.65
2018-07-14T10:01:12.738Z,100822.50
2018-07-14T10:02:19.066Z,100818.31
2018-07-14T10:03:25.434Z,100820.39
2018-07-14T10:04:32.683Z,100822.08
2018-07-14T10:05:39.828Z,100816.80
2018-07-14T10:06:46.152Z,100817.19
2018-07-14T10:07:52.479Z,100820.59
2018-07-14T10:08:58.439Z,100817.41
2018-07-14T10:10:04.615Z,100812.28
2018-07-14T10:11:10.839Z,100810.44
2018-07-14T10:12:17.123Z,100818.55
2018-07-14T10:13:23.436Z,100808.64
2018-07-14T10:14:29.748Z,100808.74
2018-07-14T10:15:36.031Z,100810.18
2018-07-14T10:16:42.321Z,100804.69
2018-07-14T10:17:48.736Z,100809.16
2018-07-14T10:18:55.156Z,100807.11
2018-07-14T10:20:01.122Z,100807.64
2018-07-14T10:21:07.738Z,100804.33
2018-07-14T10:22:14.064Z,100809.03
2018-07-14T10:23:20.499Z,100805.84
2018-07-14T10:24:26.793Z,100799.67
2018-07-14T10:25:33.136Z,100796.44
2018-07-14T10:26:39.552Z,100798.63
2018-07-14T10:27:45.846Z,100795.12
2018-07-14T10:28:52.182Z,100796.20
2018-07-14T10:29:58.495Z,100798.17
2018-07-14T10:31:04.459Z,100796.98
2018-07-14T10:32:10.839Z,100792.80
2018-07-14T10:33:17.204Z,100787.25
2018-07-14T10:34:23.506Z,100792.09
2018-07-14T10:35:30.288Z,100797.47
2018-07-14T10:36:36.727Z,100793.95
2018-07-14T10:37:43.044Z,100784.50
2018-07-14T10:38:49.158Z,100790.20
2018-07-14T10:39:55.621Z,100788.15
2018-07-14T10:41:01.927Z,100796.98
2018-07-14T10:42:07.998Z,100783.95
2018-07-14T10:43:14.455Z,100795.30
2018-07-14T10:44:20.710Z,100792.27
2018-07-14T10:45:26.985Z,100795.08
2018-07-14T10:46:33.272Z,100791.21
2018-07-14T10:47:39.567Z,100792.47
2018-07-14T10:48:45.888Z,100791.61
2018-07-14T10:49:52.165Z,100784.62
2018-07-14T10:50:58.489Z,100781.80
2018-07-14T10:52:04.404Z,100783.16
2018-07-14T10:53:10.563Z,100783.52
2018-07-14T10:54:16.903Z,100783.72
2018-07-14T10:55:23.165Z,100783.25
2018-07-14T10:56:30.253Z,100779.98
2018-07-14T10:57:37.301Z,100781.73
2018-07-14T10:58:43.571Z,100784.35
2018-07-14T10:59:49.888Z,100770.95
2018-07-14T11:00:56.201Z,100782.66
2018-07-14T11:02:02.520Z,100778.97
2018-07-14T11:03:08.488Z,100774.60
2018-07-14T11:04:14.434Z,100778.88
2018-07-14T11:05:20.732Z,100773.70
2018-07-14T11:06:26.703Z,100773.11
2018-07-14T11:07:32.978Z,100772.30
2018-07-14T11:08:38.995Z,100771.02
2018-07-14T11:09:44.972Z,100765.94
2018-07-14T11:10:50.991Z,100766.27
2018-07-14T11:11:57.061Z,100767.84
2018-07-14T11:13:03.053Z,100768.98
2018-07-14T11:14:09.339Z,100760.16
2018-07-14T11:15:16.031Z,100757.41
2018-07-14T11:16:22.061Z,100761.71
2018-07-14T11:17:28.324Z,100762.82
2018-07-14T11:18:34.619Z,100762.27
2018-07-14T11:19:40.907Z,100756.67
2018-07-14T11:20:46.876Z,100760.38
2018-07-14T11:21:52.852Z,100762.28
2018-07-14T11:22:58.863Z,100753.13
2018-07-14T11:24:04.736Z,100756.17
2018-07-14T11:25:10.731Z,100749.81
2018-07-14T11:26:17.048Z,100753.37
2018-07-14T11:27:23.302Z,100749.22
2018-07-14T11:28:29.601Z,100754.07
2018-07-14T11:29:35.544Z,100745.80
2018-07-14T11:30:41.843Z,100742.73
2018-07-14T11:31:47.875Z,100752.02
2018-07-14T11:32:54.942Z,100744.79
2018-07-14T11:34:01.240Z,100742.10
2018-07-14T11:35:06.518Z,100738.28
2018-07-14T11:36:12.233Z,100740.73
2018-07-14T11:37:18.467Z,100738.23
2018-07-14T11:38:24.731Z,100736.75
2018-07-14T11:39:31.004Z,100740.34
2018-07-14T11:40:36.310Z,100741.55
2018-07-14T11:41:42.581Z,100739.47
2018-07-14T11:42:48.822Z,100729.77
2018-07-14T11:43:55.050Z,100731.41
2018-07-14T11:45:00.992Z,100733.06
2018-07-14T11:46:06.603Z,100722.50
2018-07-14T11:47:12.622Z,100722.89
2018-07-14T11:48:18.855Z,100720.27
2018-07-14T11:49:25.372Z,100714.55
2018-07-14T11:50:31.033Z,100724.05
2018-07-14T11:51:36.767Z,100718.63
2018-07-14T11:52:42.411Z,100707.76
2018-07-14T11:53:48.672Z,100712.72
2018-07-14T11:54:54.971Z,100721.95
2018-07-14T11:56:01.812Z,100717.06
2018-07-14T11:57:07.124Z,100708.58
2018-07-14T11:58:13.084Z,100721.25
2018-07-14T11:59:19.351Z,100714.96
2018-07-14T12:00:26.339Z,100702.09
2018-07-14T12:01:32.345Z,100706.43
2018-07-14T12:02:38.329Z,100704.70
2018-07-14T12:03:44.284Z,100707.56
2018-07-14T12:04:50.259Z,100704.91
2018-07-14T12:05:56.256Z,100702.95
2018-07-14T12:07:02.257Z,100700.42
2018-07-14T12:08:08.247Z,100697.45
2018-07-14T12:09:14.247Z,100702.42
2018-07-14T12:10:20.917Z,100697.61
2018-07-14T12:11:26.563Z,100698.36
2018-07-14T12:12:32.560Z,100692.25
2018-07-14T12:13:38.319Z,100693.23
2018-07-14T12:14:44.330Z,100689.09
2018-07-14T12:15:51.383Z,100690.69
2018-07-14T12:16:57.382Z,100690.53
2018-07-14T12:18:02.987Z,100685.34
2018-07-14T12:19:08.948Z,100691.28
2018-07-14T12:20:14.980Z,100683.73
2018-07-14T12:21:20.676Z,100683.08
2018-07-14T12:22:26.800Z,100690.22
2018-07-14T12:23:32.622Z,100685.45
2018-07-14T12:24:38.707Z,100682.63
2018-07-14T12:25:45.149Z,100681.23
2018-07-14T12:26:51.754Z,100676.95
2018-07-14T12:27:57.929Z,100674.23
2018-07-14T12:29:03.933Z,100669.68
2018-07-14T12:30:09.232Z,100671.97
2018-07-14T12:31:15.517Z,100672.89
2018-07-14T12:32:22.196Z,100669.48
2018-07-14T12:33:27.960Z,100672.78
2018-07-14T12:34:34.011Z,100671.04
2018-07-14T12:35:39.785Z,100677.36
2018-07-14T12:36:45.899Z,100673.97